createdAt,value
2019-05-02T00:02:10.541Z,128.93
2019-05-02T00:04:40.941Z,130.32
2019-05-02T00:07:14.464Z,117.22
2019-05-02T00:09:48.598Z,123.62
2019-05-02T00:12:18.538Z,123.47
2019-05-02T00:14:49.238Z,128.42
2019-05-02T00:17:25.591Z,106.60
2019-05-02T00:19:53.079Z,126.25
2019-05-02T00:22:23.504Z,110.63
2019-05-02T00:24:53.950Z,111.60
2019-05-02T00:27:24.305Z,121.13
2019-05-02T00:29:58.837Z,130.75
2019-05-02T00:32:26.663Z,120.77
2019-05-02T00:34:57.185Z,120.60
2019-05-02T00:37:27.568Z,123.33
2019-05-02T00:39:57.893Z,129.03
2019-05-02T00:42:28.243Z,128.38
2019-05-02T00:44:58.549Z,98.35
2019-05-02T00:47:42.181Z,97.72
2019-05-02T00:50:13.318Z,89.90
2019-05-02T00:52:43.749Z,111.28
2019-05-02T00:55:14.768Z,100.90
2019-05-02T00:57:45.090Z,112.83
2019-05-02T01:00:18.358Z,121.53
2019-05-02T01:03:01.923Z,118.08
2019-05-02T01:05:33.694Z,101.55
2019-05-02T01:08:04.490Z,103.87
2019-05-02T01:10:34.872Z,111.47
2019-05-02T01:13:05.210Z,102.07
2019-05-02T01:15:39.186Z,95.87
2019-05-02T01:18:07.966Z,100.87
2019-05-02T01:20:38.404Z,102.65
2019-05-02T01:23:08.783Z,86.72
2019-05-02T01:25:39.178Z,91.63
2019-05-02T01:28:21.538Z,100.65
2019-05-02T01:31:18.478Z,100.42
2019-05-02T01:33:54.152Z,101.60
2019-05-02T01:36:29.985Z,103.62
2019-05-02T01:39:03.015Z,115.12
2019-05-02T01:41:32.340Z,115.70
2019-05-02T01:44:02.747Z,107.20
2019-05-02T01:46:33.058Z,105.52
2019-05-02T01:49:03.441Z,108.25
2019-05-02T01:51:36.620Z,115.12
2019-05-02T01:54:10.142Z,111.68
2019-05-02T01:56:38.033Z,111.75
2019-05-02T01:59:08.351Z,117.15
2019-05-02T02:01:38.702Z,123.02
2019-05-02T02:04:09.051Z,123.25
2019-05-02T02:06:43.276Z,122.20
2019-05-02T02:09:11.514Z,106.72
2019-05-02T02:11:41.913Z,69.82
2019-05-02T02:14:13.627Z,96.67
2019-05-02T02:16:44.281Z,90.07
2019-05-02T02:19:20.283Z,122.00
2019-05-02T02:22:02.943Z,95.83
2019-05-02T02:24:38.462Z,86.97
2019-05-02T02:27:09.152Z,99.62
2019-05-02T02:29:44.063Z,97.95
2019-05-02T02:32:11.621Z,96.78
2019-05-02T02:34:41.909Z,79.03
2019-05-02T02:37:15.065Z,101.55
2019-05-02T02:39:48.586Z,68.75
2019-05-02T02:42:16.362Z,83.82
2019-05-02T02:44:53.193Z,75.22
2019-05-02T02:47:23.672Z,91.80
2019-05-02T02:49:55.699Z,94.25
2019-05-02T02:52:26.066Z,74.97
2019-05-02T02:54:56.383Z,84.92
2019-05-02T02:57:28.501Z,83.82
2019-05-02T03:00:06.861Z,58.80
2019-05-02T03:02:31.462Z,83.05
2019-05-02T03:05:01.886Z,126.38
2019-05-02T03:07:32.323Z,130.60
2019-05-02T03:10:06.083Z,100.65
2019-05-02T03:12:52.758Z,79.75
2019-05-02T03:15:28.077Z,84.37
2019-05-02T03:18:00.067Z,96.30
2019-05-02T03:20:40.143Z,94.17
2019-05-02T03:23:00.990Z,108.85
2019-05-02T03:25:50.113Z,125.75
2019-05-02T03:28:04.010Z,147.53
2019-05-02T03:30:37.454Z,141.77
2019-05-02T03:33:11.515Z,123.22
2019-05-02T03:35:48.024Z,67.92
2019-05-02T03:38:10.626Z,86.60
2019-05-02T03:40:41.378Z,75.08
2019-05-02T03:43:11.781Z,84.20
2019-05-02T03:45:43.260Z,98.00
2019-05-02T03:48:18.373Z,92.67
2019-05-02T03:50:46.241Z,94.25
2019-05-02T03:53:17.778Z,106.45
2019-05-02T03:55:49.213Z,102.97
2019-05-02T03:58:19.911Z,111.35
2019-05-02T04:01:00.915Z,96.40
2019-05-02T04:03:23.029Z,91.90
2019-05-02T04:05:54.070Z,91.47
2019-05-02T04:08:25.120Z,93.52
2019-05-02T04:11:25.532Z,105.20
2019-05-02T04:13:59.698Z,124.22
2019-05-02T04:16:31.527Z,128.80
2019-05-02T04:19:03.689Z,141.00
2019-05-02T04:21:35.415Z,129.93
2019-05-02T04:24:13.454Z,132.12
2019-05-02T04:26:52.684Z,135.35
2019-05-02T04:29:12.295Z,142.70
2019-05-02T04:31:42.663Z,143.55
2019-05-02T04:34:15.808Z,134.45
2019-05-02T04:36:46.520Z,140.03
2019-05-02T04:39:21.190Z,138.90
2019-05-02T04:41:49.301Z,147.82
2019-05-02T04:44:19.770Z,137.30
2019-05-02T04:46:50.121Z,143.70
2019-05-02T04:49:29.731Z,145.82
2019-05-02T04:52:01.546Z,143.97
2019-05-02T04:54:29.083Z,145.40
2019-05-02T04:56:59.013Z,135.25
2019-05-02T04:59:32.968Z,133.00
2019-05-02T05:02:02.916Z,141.60
2019-05-02T05:04:42.460Z,140.65
2019-05-02T05:07:09.272Z,141.55
2019-05-02T05:09:50.031Z,144.05
2019-05-02T05:12:17.636Z,137.22
2019-05-02T05:14:48.316Z,139.22
2019-05-02T05:17:19.988Z,136.12
2019-05-02T05:19:51.987Z,137.18
2019-05-02T05:22:22.713Z,137.47
2019-05-02T05:24:59.939Z,160.65
2019-05-02T05:27:31.198Z,151.72
2019-05-02T05:30:08.381Z,155.48
2019-05-02T05:32:33.816Z,150.62
2019-05-02T05:35:08.961Z,165.37
2019-05-02T05:37:38.212Z,152.38
2019-05-02T05:40:08.859Z,155.85
2019-05-02T05:42:39.226Z,160.40
2019-05-02T05:45:13.758Z,165.00
2019-05-02T05:47:43.099Z,165.45
2019-05-02T05:50:14.247Z,169.80
2019-05-02T05:52:44.668Z,179.23
2019-05-02T05:55:20.519Z,159.65
2019-05-02T05:57:49.749Z,183.57
2019-05-02T06:00:23.026Z,172.00
2019-05-02T06:02:56.364Z,178.97
2019-05-02T06:05:23.654Z,193.32
2019-05-02T06:07:54.054Z,179.82
2019-05-02T06:10:24.407Z,208.35
2019-05-02T06:12:54.803Z,205.25
2019-05-02T06:15:25.120Z,208.63
2019-05-02T06:17:55.485Z,191.40
2019-05-02T06:20:30.535Z,199.87
2019-05-02T06:23:00.100Z,207.70
2019-05-02T06:25:34.262Z,185.63
2019-05-02T06:28:05.662Z,150.00
2019-05-02T06:30:34.226Z,172.78
2019-05-02T06:33:04.624Z,165.60
2019-05-02T06:35:35.572Z,162.30
2019-05-02T06:38:06.027Z,165.25
2019-05-02T06:40:39.282Z,158.40
2019-05-02T06:43:09.699Z,167.05
2019-05-02T06:45:40.549Z,169.53
2019-05-02T06:48:17.214Z,188.55
2019-05-02T06:50:42.964Z,178.15
2019-05-02T06:53:13.320Z,173.55
2019-05-02T06:55:43.677Z,191.60
2019-05-02T06:58:14.049Z,180.25
2019-05-02T07:00:56.646Z,195.75
2019-05-02T07:03:16.954Z,190.07
2019-05-02T07:05:49.032Z,182.90
2019-05-02T07:08:19.589Z,173.28
2019-05-02T07:10:49.998Z,179.42
2019-05-02T07:13:20.392Z,184.82
2019-05-02T07:16:24.028Z,175.93
2019-05-02T07:18:50.971Z,188.32
2019-05-02T07:21:23.613Z,172.93
2019-05-02T07:23:55.055Z,182.88
2019-05-02T07:26:25.775Z,191.57
2019-05-02T07:28:56.157Z,193.60
2019-05-02T07:31:26.469Z,175.22
2019-05-02T07:33:56.833Z,176.30
2019-05-02T07:36:31.206Z,183.30
2019-05-02T07:39:05.204Z,168.55
2019-05-02T07:41:31.340Z,172.45
2019-05-02T07:44:04.424Z,180.15
2019-05-02T07:46:34.138Z,158.20
2019-05-02T07:49:04.672Z,178.42
2019-05-02T07:51:35.019Z,181.20
2019-05-02T07:54:05.365Z,178.07
2019-05-02T07:56:35.739Z,168.95
2019-05-02T07:59:06.088Z,173.10
2019-05-02T08:01:36.428Z,172.80
2019-05-02T08:04:11.145Z,174.05
2019-05-02T08:06:40.122Z,165.05
2019-05-02T08:09:11.761Z,155.55
2019-05-02T08:11:42.124Z,173.90
2019-05-02T08:14:12.460Z,164.55
2019-05-02T08:16:42.881Z,160.93
2019-05-02T08:19:13.219Z,178.42
2019-05-02T08:21:43.632Z,175.38
2019-05-02T08:24:14.036Z,177.47
2019-05-02T08:27:03.305Z,165.45
2019-05-02T08:29:34.411Z,174.82
2019-05-02T08:32:04.736Z,176.53
2019-05-02T08:34:35.128Z,174.30
2019-05-02T08:37:05.621Z,169.28
2019-05-02T08:39:35.979Z,171.60
2019-05-02T08:42:06.800Z,168.80
2019-05-02T08:44:50.375Z,166.32
2019-05-02T08:47:18.630Z,162.65
2019-05-02T08:49:42.570Z,162.88
2019-05-02T08:52:13.166Z,152.40
2019-05-02T08:54:43.502Z,162.27
2019-05-02T08:57:13.868Z,158.55
2019-05-02T08:59:44.281Z,146.50
2019-05-02T09:02:14.693Z,159.60
2019-05-02T09:04:57.643Z,145.50
2019-05-02T09:07:17.264Z,154.57
2019-05-02T09:09:47.780Z,153.45
2019-05-02T09:12:20.058Z,149.32
2019-05-02T09:14:51.972Z,152.93
2019-05-02T09:17:35.094Z,142.20
2019-05-02T09:20:02.382Z,164.80
2019-05-02T09:22:26.410Z,161.82
2019-05-02T09:24:56.746Z,140.18
2019-05-02T09:27:27.165Z,146.45
2019-05-02T09:29:57.494Z,136.35
2019-05-02T09:32:27.823Z,139.30
2019-05-02T09:35:02.257Z,138.55
2019-05-02T09:37:32.138Z,122.40
2019-05-02T09:40:06.819Z,116.42
2019-05-02T09:42:35.017Z,120.55
2019-05-02T09:45:06.080Z,127.87
2019-05-02T09:47:52.894Z,126.92
2019-05-02T09:50:15.719Z,120.17
2019-05-02T09:52:47.124Z,126.62
2019-05-02T09:55:19.009Z,137.75
2019-05-02T09:57:49.360Z,150.30
2019-05-02T10:00:43.725Z,147.70
2019-05-02T10:03:14.486Z,144.25
2019-05-02T10:05:44.827Z,136.50
2019-05-02T10:08:15.253Z,115.03
2019-05-02T10:10:46.232Z,106.27
2019-05-02T10:13:16.918Z,123.85
2019-05-02T10:15:47.859Z,129.75
2019-05-02T10:18:19.689Z,136.70
2019-05-02T10:20:52.256Z,153.93
2019-05-02T10:23:23.442Z,139.20
2019-05-02T10:25:54.312Z,130.80
2019-05-02T10:28:24.769Z,130.35
2019-05-02T10:30:56.826Z,126.22
2019-05-02T10:33:27.927Z,133.47
2019-05-02T10:35:59.288Z,113.08
2019-05-02T10:38:29.593Z,113.35
2019-05-02T10:41:02.623Z,108.05
2019-05-02T10:43:32.892Z,97.42
2019-05-02T10:46:09.587Z,111.83
2019-05-02T10:48:45.471Z,94.07
2019-05-02T10:51:41.947Z,100.60
2019-05-02T10:54:08.964Z,79.27
2019-05-02T10:56:39.295Z,77.45
2019-05-02T10:59:11.644Z,78.78
2019-05-02T11:02:02.529Z,78.12
2019-05-02T11:04:35.023Z,76.70
2019-05-02T11:07:05.488Z,79.42
2019-05-02T11:09:35.868Z,88.55
2019-05-02T11:12:07.825Z,92.05
2019-05-02T11:14:59.886Z,110.97
2019-05-02T11:17:37.607Z,101.27
2019-05-02T11:20:12.188Z,93.52
2019-05-02T11:22:42.827Z,91.12
2019-05-02T11:25:13.193Z,85.55
2019-05-02T11:27:43.560Z,78.50
2019-05-02T11:30:16.869Z,68.87
2019-05-02T11:32:46.261Z,56.85
2019-05-02T11:35:16.595Z,51.95
2019-05-02T11:37:46.917Z,48.08
2019-05-02T11:40:17.242Z,45.45
2019-05-02T11:42:47.865Z,33.85
2019-05-02T11:45:18.197Z,26.70
2019-05-02T11:47:48.509Z,28.12
2019-05-02T11:50:18.895Z,29.63
2019-05-02T11:52:49.210Z,29.77
2019-05-02T11:55:24.589Z,27.45
2019-05-02T11:57:52.397Z,32.03
2019-05-02T12:00:22.716Z,34.48
2019-05-02T12:03:28.273Z,34.83
2019-05-02T12:05:59.383Z,37.80
2019-05-02T12:08:31.807Z,36.05
2019-05-02T12:11:03.760Z,36.25
2019-05-02T12:13:33.874Z,42.78
2019-05-02T12:16:08.585Z,39.83
2019-05-02T12:18:38.359Z,34.38
2019-05-02T12:21:08.843Z,36.65
2019-05-02T12:23:39.225Z,36.45
2019-05-02T12:26:09.630Z,33.67
2019-05-02T12:28:40.038Z,36.85
2019-05-02T12:31:32.111Z,32.78
2019-05-02T12:34:04.267Z,31.10
2019-05-02T12:36:34.637Z,35.80
2019-05-02T12:39:06.627Z,35.68
2019-05-02T12:41:37.052Z,35.60
2019-05-02T12:44:07.533Z,35.60
2019-05-02T12:46:37.880Z,39.78
2019-05-02T12:49:08.197Z,41.68
2019-05-02T12:51:38.557Z,44.42
2019-05-02T12:54:08.902Z,49.95
2019-05-02T12:56:39.254Z,45.58
2019-05-02T12:59:11.689Z,56.58
2019-05-02T13:01:42.253Z,68.97
2019-05-02T13:04:14.242Z,70.92
2019-05-02T13:06:44.755Z,70.55
2019-05-02T13:09:15.338Z,69.77
2019-05-02T13:12:05.694Z,68.85
2019-05-02T13:14:36.006Z,66.75
2019-05-02T13:17:06.443Z,75.03
2019-05-02T13:19:40.909Z,70.97
2019-05-02T13:22:24.518Z,79.15
2019-05-02T13:24:57.926Z,69.92
2019-05-02T13:27:32.202Z,73.80
2019-05-02T13:30:03.223Z,69.97
2019-05-02T13:32:42.674Z,75.17
2019-05-02T13:35:26.931Z,75.00
2019-05-02T13:38:02.725Z,73.47
2019-05-02T13:40:41.671Z,69.00
2019-05-02T13:43:12.533Z,69.03
2019-05-02T13:46:05.458Z,61.58
2019-05-02T13:48:35.898Z,63.05
2019-05-02T13:51:06.331Z,68.92
2019-05-02T13:53:38.714Z,58.90
2019-05-02T13:56:46.319Z,73.20
2019-05-02T13:59:17.151Z,63.48
2019-05-02T14:01:49.404Z,63.08
2019-05-02T14:04:19.799Z,52.58
2019-05-02T14:06:50.128Z,54.42
2019-05-02T14:09:32.499Z,54.40
2019-05-02T14:12:22.870Z,52.60
2019-05-02T14:14:53.262Z,53.48
2019-05-02T14:17:23.759Z,55.12
2019-05-02T14:20:07.118Z,49.45
2019-05-02T14:22:26.177Z,50.28
2019-05-02T14:24:56.498Z,47.43
2019-05-02T14:27:26.835Z,46.25
2019-05-02T14:29:57.213Z,45.05
2019-05-02T14:32:27.559Z,42.58
2019-05-02T14:35:03.947Z,44.20
2019-05-02T14:37:34.290Z,42.15
2019-05-02T14:40:12.152Z,44.20
2019-05-02T14:42:42.528Z,45.48
2019-05-02T14:45:27.230Z,44.50
2019-05-02T14:47:44.926Z,44.48
2019-05-02T14:50:24.325Z,47.15
2019-05-02T14:52:47.784Z,43.45
2019-05-02T14:55:24.018Z,38.45
2019-05-02T14:57:52.489Z,42.55
2019-05-02T15:00:24.139Z,39.38
2019-05-02T15:02:54.467Z,35.03
2019-05-02T15:05:29.545Z,35.33
2019-05-02T15:08:01.538Z,32.33
2019-05-02T15:10:29.218Z,31.48
2019-05-02T15:13:01.141Z,33.23
2019-05-02T15:15:33.627Z,32.03
2019-05-02T15:18:07.919Z,28.07
2019-05-02T15:20:39.345Z,33.50
2019-05-02T15:23:14.338Z,36.35
2019-05-02T15:25:42.263Z,36.75
2019-05-02T15:28:19.410Z,37.10
2019-05-02T15:31:05.047Z,45.23
2019-05-02T15:33:39.640Z,39.98
2019-05-02T15:36:11.841Z,42.78
2019-05-02T15:38:47.342Z,40.73
2019-05-02T15:41:15.468Z,37.40
2019-05-02T15:43:49.244Z,38.95
2019-05-02T15:46:23.689Z,40.80
2019-05-02T15:48:51.971Z,35.23
2019-05-02T15:51:23.146Z,38.20
2019-05-02T15:54:07.634Z,42.50
2019-05-02T15:56:32.290Z,36.95
2019-05-02T15:59:06.197Z,36.70
2019-05-02T16:01:52.459Z,39.95
2019-05-02T16:04:25.898Z,32.90
2019-05-02T16:07:00.365Z,38.95
2019-05-02T16:09:28.363Z,35.58
2019-05-02T16:11:58.764Z,34.92
2019-05-02T16:14:32.434Z,37.30
2019-05-02T16:17:03.794Z,41.20
2019-05-02T16:19:36.758Z,38.67
2019-05-02T16:22:13.392Z,32.88
2019-05-02T16:24:48.130Z,34.50
2019-05-02T16:27:16.338Z,36.63
2019-05-02T16:29:47.900Z,32.80
2019-05-02T16:32:37.859Z,28.75
2019-05-02T16:35:13.547Z,27.13
2019-05-02T16:37:42.083Z,21.75
2019-05-02T16:40:13.195Z,21.12
2019-05-02T16:42:43.619Z,21.75
2019-05-02T16:45:14.667Z,14.13
2019-05-02T16:47:45.047Z,19.17
2019-05-02T16:50:18.577Z,17.90
2019-05-02T16:52:47.957Z,14.25
2019-05-02T16:55:21.130Z,14.95
2019-05-02T16:57:51.904Z,15.18
2019-05-02T17:00:25.794Z,13.38
2019-05-02T17:02:56.146Z,15.32
2019-05-02T17:05:26.562Z,14.05
2019-05-02T17:08:19.836Z,12.03
2019-05-02T17:10:56.885Z,20.05
2019-05-02T17:13:27.431Z,10.23
2019-05-02T17:15:58.971Z,13.45
2019-05-02T17:18:29.332Z,13.48
2019-05-02T17:21:01.584Z,14.18
2019-05-02T17:23:32.874Z,18.10
2019-05-02T17:26:03.626Z,17.17
2019-05-02T17:28:38.111Z,18.35
2019-05-02T17:31:10.838Z,17.23
2019-05-02T17:33:38.208Z,15.95
2019-05-02T17:36:08.557Z,14.30
2019-05-02T17:38:39.021Z,14.47
2019-05-02T17:41:11.715Z,19.48
2019-05-02T17:43:42.285Z,20.05
2019-05-02T17:46:18.278Z,17.98
2019-05-02T17:48:47.655Z,15.20
2019-05-02T17:51:35.751Z,14.75
2019-05-02T17:54:05.096Z,16.75
2019-05-02T17:56:35.441Z,16.55
2019-05-02T17:59:05.918Z,19.82
2019-05-02T18:01:41.669Z,19.00
2019-05-02T18:04:16.284Z,20.40
2019-05-02T18:06:46.924Z,21.90
2019-05-02T18:09:16.084Z,20.88
2019-05-02T18:11:46.430Z,23.15
2019-05-02T18:14:21.287Z,29.30
2019-05-02T18:16:51.946Z,27.82
2019-05-02T18:19:24.480Z,24.00
2019-05-02T18:21:53.164Z,27.58
2019-05-02T18:24:23.477Z,27.58
2019-05-02T18:26:53.794Z,28.52
2019-05-02T18:29:24.140Z,28.80
2019-05-02T18:31:54.468Z,31.25
2019-05-02T18:34:25.278Z,27.65
2019-05-02T18:36:57.424Z,33.90
2019-05-02T18:39:27.899Z,34.00
2019-05-02T18:41:58.313Z,37.55
2019-05-02T18:44:28.681Z,38.55
2019-05-02T18:46:59.016Z,49.98
2019-05-02T18:49:29.384Z,48.35
2019-05-02T18:52:01.626Z,49.45
2019-05-02T18:54:33.666Z,47.67
2019-05-02T18:57:03.900Z,50.50
2019-05-02T18:59:34.259Z,49.93
2019-05-02T19:02:04.594Z,54.18
2019-05-02T19:04:39.404Z,54.23
2019-05-02T19:07:12.083Z,52.45
2019-05-02T19:09:50.428Z,53.87
2019-05-02T19:12:19.449Z,51.73
2019-05-02T19:14:43.785Z,51.63
2019-05-02T19:17:14.116Z,48.25
2019-05-02T19:19:44.481Z,48.63
2019-05-02T19:22:17.085Z,50.00
2019-05-02T19:24:47.824Z,46.90
2019-05-02T19:27:37.110Z,49.53
2019-05-02T19:30:08.758Z,53.40
2019-05-02T19:32:39.062Z,53.75
2019-05-02T19:35:09.399Z,52.45
2019-05-02T19:37:44.593Z,55.23
2019-05-02T19:40:14.903Z,48.42
2019-05-02T19:42:45.328Z,49.18
2019-05-02T19:45:16.814Z,46.00
2019-05-02T19:47:49.037Z,44.90
2019-05-02T19:50:43.049Z,47.98
2019-05-02T19:53:15.219Z,40.75
2019-05-02T19:55:42.965Z,38.63
2019-05-02T19:58:13.632Z,40.73
2019-05-02T20:00:46.292Z,38.63
2019-05-02T20:03:21.657Z,44.58
2019-05-02T20:05:48.550Z,41.80
2019-05-02T20:08:21.189Z,44.05
2019-05-02T20:10:56.758Z,45.52
2019-05-02T20:13:28.272Z,41.95
2019-05-02T20:16:07.333Z,43.73
2019-05-02T20:18:45.587Z,41.33
2019-05-02T20:21:23.380Z,44.55
2019-05-02T20:23:47.034Z,39.25
2019-05-02T20:26:17.415Z,34.25
2019-05-02T20:28:47.733Z,36.98
2019-05-02T20:31:18.101Z,40.05
2019-05-02T20:33:48.447Z,35.05
2019-05-02T20:36:18.782Z,36.53
2019-05-02T20:38:49.138Z,31.10
2019-05-02T20:41:19.497Z,30.82
2019-05-02T20:43:51.544Z,29.42
2019-05-02T20:46:22.063Z,34.78
2019-05-02T20:48:52.724Z,33.25
2019-05-02T20:51:23.201Z,27.60
2019-05-02T20:53:53.574Z,31.68
2019-05-02T20:56:24.014Z,28.73
2019-05-02T20:58:54.371Z,34.30
2019-05-02T21:01:24.883Z,27.87
2019-05-02T21:03:55.239Z,27.15
2019-05-02T21:06:59.417Z,26.60
2019-05-02T21:09:52.469Z,29.40
2019-05-02T21:12:23.318Z,25.95
2019-05-02T21:14:53.705Z,24.52
2019-05-02T21:17:24.064Z,22.93
2019-05-02T21:19:54.458Z,27.75
2019-05-02T21:22:29.242Z,22.02
2019-05-02T21:24:59.619Z,27.65
2019-05-02T21:27:29.997Z,23.32
2019-05-02T21:30:00.351Z,27.73
2019-05-02T21:32:32.137Z,26.37
2019-05-02T21:35:02.982Z,25.68
2019-05-02T21:37:33.340Z,32.08
2019-05-02T21:40:03.826Z,26.12
2019-05-02T21:42:34.144Z,24.25
2019-05-02T21:45:04.562Z,30.80
2019-05-02T21:47:35.020Z,29.30
2019-05-02T21:50:12.346Z,26.62
2019-05-02T21:53:01.988Z,27.42
2019-05-02T21:55:45.281Z,26.17
2019-05-02T21:58:15.656Z,24.87
2019-05-02T22:00:55.779Z,27.73
2019-05-02T22:03:26.352Z,21.05
2019-05-02T22:05:56.740Z,23.83
2019-05-02T22:08:27.082Z,19.85
2019-05-02T22:10:57.437Z,24.77
2019-05-02T22:13:27.791Z,18.77
2019-05-02T22:15:58.799Z,23.45
2019-05-02T22:18:29.243Z,18.23
2019-05-02T22:21:01.577Z,19.80
2019-05-02T22:23:33.904Z,17.20
2019-05-02T22:26:03.836Z,23.60
2019-05-02T22:28:34.225Z,20.02
2019-05-02T22:31:04.608Z,18.75
2019-05-02T22:33:34.968Z,22.50
2019-05-02T22:36:05.441Z,22.07
2019-05-02T22:38:53.331Z,19.85
2019-05-02T22:41:23.680Z,19.23
2019-05-02T22:43:54.012Z,18.80
2019-05-02T22:46:43.901Z,24.00
2019-05-02T22:49:15.213Z,17.23
2019-05-02T22:51:46.347Z,17.73
2019-05-02T22:54:26.819Z,18.00
2019-05-02T22:56:48.797Z,16.00
2019-05-02T22:59:19.154Z,20.25
2019-05-02T23:01:49.500Z,23.92
2019-05-02T23:04:23.333Z,19.25
2019-05-02T23:06:52.947Z,19.42
2019-05-02T23:09:23.848Z,19.00
2019-05-02T23:11:54.190Z,17.12
2019-05-02T23:14:24.582Z,17.50
2019-05-02T23:16:54.962Z,18.52
2019-05-02T23:19:25.295Z,20.08
2019-05-02T23:21:55.847Z,18.60
2019-05-02T23:24:38.707Z,15.50
2019-05-02T23:27:17.827Z,10.65
2019-05-02T23:29:48.223Z,14.68
2019-05-02T23:32:18.563Z,17.75
2019-05-02T23:34:48.939Z,13.53
2019-05-02T23:37:19.348Z,12.95
2019-05-02T23:39:49.815Z,14.23
2019-05-02T23:42:21.871Z,17.20
2019-05-02T23:44:52.249Z,14.93
2019-05-02T23:47:22.616Z,19.60
2019-05-02T23:49:52.979Z,14.43
2019-05-02T23:52:23.369Z,11.28
2019-05-02T23:54:53.740Z,12.20
2019-05-02T23:57:24.089Z,14.05
2019-05-02T23:59:54.474Z,12.78
